sensor_id;sensor_type;location;lat;lon;timestamp;pressure;altitude;pressure_sealevel;temperature;humidity
59055;BME280;44845;51.444;7.460;2023-12-20T00:00:12;99553.56;;;8.06;97.80
59055;BME280;44845;51.444;7.460;2023-12-20T00:02:41;99556.16;;;8.17;97.57
59055;BME280;44845;51.444;7.460;2023-12-20T00:05:10;99550.06;;;8.14;97.96
59055;BME280;44845;51.444;7.460;2023-12-20T00:07:38;99560.53;;;8.15;97.45
59055;BME280;44845;51.444;7.460;2023-12-20T00:10:06;99558.78;;;8.13;97.20
59055;BME280;44845;51.444;7.460;2023-12-20T00:12:32;99566.63;;;8.14;97.10
59055;BME280;44845;51.444;7.460;2023-12-20T00:14:57;99559.63;;;8.22;96.37
59055;BME280;44845;51.444;7.460;2023-12-20T00:17:29;99557.91;;;8.20;96.38
59055;BME280;44845;51.444;7.460;2023-12-20T00:19:55;99561.38;;;8.20;96.42
59055;BME280;44845;51.444;7.460;2023-12-20T00:22:20;99554.44;;;8.18;96.57
59055;BME280;44845;51.444;7.460;2023-12-20T00:24:51;99551.81;;;8.15;96.77
59055;BME280;44845;51.444;7.460;2023-12-20T00:27:19;99559.63;;;8.16;96.23
59055;BME280;44845;51.444;7.460;2023-12-20T00:29:47;99550.06;;;8.21;96.36
59055;BME280;44845;51.444;7.460;2023-12-20T00:32:15;99549.16;;;8.24;96.35
59055;BME280;44845;51.444;7.460;2023-12-20T00:34:40;99549.16;;;8.21;97.03
59055;BME280;44845;51.444;7.460;2023-12-20T00:37:06;99560.53;;;8.18;96.45
59055;BME280;44845;51.444;7.460;2023-12-20T00:39:31;99568.38;;;8.15;96.84
59055;BME280;44845;51.444;7.460;2023-12-20T00:41:58;99571.88;;;8.08;97.10
59055;BME280;44845;51.444;7.460;2023-12-20T00:44:23;99578.84;;;7.99;97.25
59055;BME280;44845;51.444;7.460;2023-12-20T00:46:50;99571.00;;;8.07;96.56
59055;BME280;44845;51.444;7.460;2023-12-20T00:49:16;99573.59;;;8.09;96.70
59055;BME280;44845;51.444;7.460;2023-12-20T00:51:44;99575.34;;;7.99;97.05
59055;BME280;44845;51.444;7.460;2023-12-20T00:54:10;99585.78;;;7.94;96.93
59055;BME280;44845;51.444;7.460;2023-12-20T00:56:35;99585.78;;;8.05;96.38
59055;BME280;44845;51.444;7.460;2023-12-20T00:59:00;99589.25;;;8.15;96.21
59055;BME280;44845;51.444;7.460;2023-12-20T01:01:26;99598.00;;;8.11;96.28
59055;BME280;44845;51.444;7.460;2023-12-20T01:03:54;99606.69;;;8.02;96.23
59055;BME280;44845;51.444;7.460;2023-12-20T01:06:20;99604.97;;;7.81;96.66
59055;BME280;44845;51.444;7.460;2023-12-20T01:08:46;99598.03;;;7.76;97.12
59055;BME280;44845;51.444;7.460;2023-12-20T01:11:11;99604.97;;;7.62;97.14
59055;BME280;44845;51.444;7.460;2023-12-20T01:13:36;99605.81;;;7.80;96.06
59055;BME280;44845;51.444;7.460;2023-12-20T01:16:05;99596.28;;;7.75;95.35
59055;BME280;44845;51.444;7.460;2023-12-20T01:18:31;99598.00;;;7.61;95.77
59055;BME280;44845;51.444;7.460;2023-12-20T01:21:02;99596.28;;;7.79;94.80
59055;BME280;44845;51.444;7.460;2023-12-20T01:23:28;99602.34;;;7.82;94.29
59055;BME280;44845;51.444;7.460;2023-12-20T01:25:54;99598.00;;;7.80;94.12
59055;BME280;44845;51.444;7.460;2023-12-20T01:28:22;99603.22;;;7.83;93.63
59055;BME280;44845;51.444;7.460;2023-12-20T01:30:50;99599.72;;;7.74;93.97
59055;BME280;44845;51.444;7.460;2023-12-20T01:33:16;99608.47;;;7.73;94.02
59055;BME280;44845;51.444;7.460;2023-12-20T01:35:47;99604.09;;;7.75;94.38
59055;BME280;44845;51.444;7.460;2023-12-20T01:38:15;99614.53;;;7.72;94.36
59055;BME280;44845;51.444;7.460;2023-12-20T01:40:44;99615.41;;;7.77;94.28
59055;BME280;44845;51.444;7.460;2023-12-20T01:43:09;99614.53;;;7.75;94.25
59055;BME280;44845;51.444;7.460;2023-12-20T01:45:36;99611.94;;;7.69;94.39
59055;BME280;44845;51.444;7.460;2023-12-20T01:48:02;99608.47;;;7.64;93.60
59055;BME280;44845;51.444;7.460;2023-12-20T01:50:29;99613.66;;;7.83;93.74
59055;BME280;44845;51.444;7.460;2023-12-20T01:52:55;99611.94;;;7.79;93.67
59055;BME280;44845;51.444;7.460;2023-12-20T01:55:24;99620.66;;;7.84;93.72
59055;BME280;44845;51.444;7.460;2023-12-20T01:57:50;99609.31;;;7.75;93.88
59055;BME280;44845;51.444;7.460;2023-12-20T02:00:16;99615.44;;;7.84;93.91
59055;BME280;44845;51.444;7.460;2023-12-20T02:02:44;99618.88;;;7.80;94.10
59055;BME280;44845;51.444;7.460;2023-12-20T02:05:10;99611.03;;;7.84;93.48
59055;BME280;44845;51.444;7.460;2023-12-20T02:07:36;99621.50;;;7.75;93.76
59055;BME280;44845;51.444;7.460;2023-12-20T02:10:02;99617.16;;;7.61;92.97
59055;BME280;44845;51.444;7.460;2023-12-20T02:12:27;99615.41;;;7.71;92.62
59055;BME280;44845;51.444;7.460;2023-12-20T02:14:53;99612.81;;;7.63;92.99
59055;BME280;44845;51.444;7.460;2023-12-20T02:17:19;99613.66;;;7.67;91.93
59055;BME280;44845;51.444;7.460;2023-12-20T02:19:45;99612.81;;;7.68;91.82
59055;BME280;44845;51.444;7.460;2023-12-20T02:22:11;99606.72;;;7.57;91.86
59055;BME280;44845;51.444;7.460;2023-12-20T02:24:36;99604.09;;;7.57;91.61
59055;BME280;44845;51.444;7.460;2023-12-20T02:27:02;99616.28;;;7.56;91.82
59055;BME280;44845;51.444;7.460;2023-12-20T02:29:28;99603.25;;;7.64;91.30
59055;BME280;44845;51.444;7.460;2023-12-20T02:31:53;99606.72;;;7.57;91.81
59055;BME280;44845;51.444;7.460;2023-12-20T02:34:19;99617.13;;;7.50;91.94
59055;BME280;44845;51.444;7.460;2023-12-20T02:36:44;99612.81;;;7.54;91.64
59055;BME280;44845;51.444;7.460;2023-12-20T02:39:09;99604.94;;;7.52;91.17
59055;BME280;44845;51.444;7.460;2023-12-20T02:41:35;99611.03;;;7.48;91.48
59055;BME280;44845;51.444;7.460;2023-12-20T02:44:01;99606.69;;;7.44;91.41
59055;BME280;44845;51.444;7.460;2023-12-20T02:46:27;99611.91;;;7.38;91.19
59055;BME280;44845;51.444;7.460;2023-12-20T02:48:52;99606.69;;;7.44;91.34
59055;BME280;44845;51.444;7.460;2023-12-20T02:51:17;99611.03;;;7.39;91.44
59055;BME280;44845;51.444;7.460;2023-12-20T02:53:43;99613.63;;;7.36;91.65
59055;BME280;44845;51.444;7.460;2023-12-20T02:56:08;99608.44;;;7.42;91.95
59055;BME280;44845;51.444;7.460;2023-12-20T02:58:33;99610.16;;;7.32;92.06
59055;BME280;44845;51.444;7.460;2023-12-20T03:00:59;99604.94;;;7.43;92.40
59055;BME280;44845;51.444;7.460;2023-12-20T03:03:24;99603.22;;;7.45;92.31
59055;BME280;44845;51.444;7.460;2023-12-20T03:05:50;99611.03;;;7.43;92.43
59055;BME280;44845;51.444;7.460;2023-12-20T03:08:15;99603.22;;;7.45;92.33
59055;BME280;44845;51.444;7.460;2023-12-20T03:10:41;99604.09;;;7.39;92.75
59055;BME280;44845;51.444;7.460;2023-12-20T03:13:06;99608.44;;;7.37;92.62
59055;BME280;44845;51.444;7.460;2023-12-20T03:15:31;99610.19;;;7.37;92.55
59055;BME280;44845;51.444;7.460;2023-12-20T03:17:57;99605.81;;;7.36;92.84
59055;BME280;44845;51.444;7.460;2023-12-20T03:20:24;99608.44;;;7.34;92.68
59055;BME280;44845;51.444;7.460;2023-12-20T03:22:51;99592.78;;;7.29;92.86
59055;BME280;44845;51.444;7.460;2023-12-20T03:25:16;99600.59;;;7.29;92.93
59055;BME280;44845;51.444;7.460;2023-12-20T03:27:41;99598.00;;;7.29;93.06
59055;BME280;44845;51.444;7.460;2023-12-20T03:30:07;99597.13;;;7.29;92.46
59055;BME280;44845;51.444;7.460;2023-12-20T03:32:32;99598.88;;;7.35;92.29
59055;BME280;44845;51.444;7.460;2023-12-20T03:34:58;99604.94;;;7.27;92.29
59055;BME280;44845;51.444;7.460;2023-12-20T03:37:23;99598.84;;;7.25;92.38
59055;BME280;44845;51.444;7.460;2023-12-20T03:39:48;99607.50;;;7.13;92.44
59055;BME280;44845;51.444;7.460;2023-12-20T03:42:14;99604.03;;;7.05;93.17
59055;BME280;44845;51.444;7.460;2023-12-20T03:44:39;99603.16;;;7.04;93.29
59055;BME280;44845;51.444;7.460;2023-12-20T03:47:05;99599.66;;;7.02;92.78
59055;BME280;44845;51.444;7.460;2023-12-20T03:49:31;99603.16;;;7.09;92.34
59055;BME280;44845;51.444;7.460;2023-12-20T03:51:56;99596.19;;;7.00;92.72
59055;BME280;44845;51.444;7.460;2023-12-20T03:54:21;99599.63;;;6.96;92.69
59055;BME280;44845;51.444;7.460;2023-12-20T03:56:47;99603.16;;;7.14;92.10
59055;BME280;44845;51.444;7.460;2023-12-20T03:59:12;99611.00;;;7.18;91.57
59055;BME280;44845;51.444;7.460;2023-12-20T04:01:38;99603.13;;;7.01;91.97
59055;BME280;44845;51.444;7.460;2023-12-20T04:04:03;99600.53;;;7.03;91.97
59055;BME280;44845;51.444;7.460;2023-12-20T04:06:28;99608.38;;;7.04;91.25
59055;BME280;44845;51.444;7.460;2023-12-20T04:08:54;99598.84;;;7.13;91.52
59055;BME280;44845;51.444;7.460;2023-12-20T04:11:19;99597.09;;;7.12;90.92
59055;BME280;44845;51.444;7.460;2023-12-20T04:13:44;99594.47;;;7.12;90.83
59055;BME280;44845;51.444;7.460;2023-12-20T04:16:10;99596.22;;;7.16;90.92
59055;BME280;44845;51.444;7.460;2023-12-20T04:18:35;99606.66;;;7.16;91.03
59055;BME280;44845;51.444;7.460;2023-12-20T04:21:01;99610.97;;;7.09;91.33
59055;BME280;44845;51.444;7.460;2023-12-20T04:23:26;99611.81;;;7.03;91.49
59055;BME280;44845;51.444;7.460;2023-12-20T04:25:54;99597.97;;;7.12;91.34
59055;BME280;44845;51.444;7.460;2023-12-20T04:28:19;99593.63;;;7.17;91.07
59055;BME280;44845;51.444;7.460;2023-12-20T04:30:45;99597.94;;;7.04;91.83
59055;BME280;44845;51.444;7.460;2023-12-20T04:33:10;99599.66;;;6.99;91.94
59055;BME280;44845;51.444;7.460;2023-12-20T04:35:35;99597.03;;;6.94;91.34
59055;BME280;44845;51.444;7.460;2023-12-20T04:38:01;99589.25;;;7.02;91.42
59055;BME280;44845;51.444;7.460;2023-12-20T04:40:26;99590.09;;;7.04;90.96
59055;BME280;44845;51.444;7.460;2023-12-20T04:42:51;99597.94;;;7.07;90.64
59055;BME280;44845;51.444;7.460;2023-12-20T04:45:16;99596.13;;;6.84;91.91
59055;BME280;44845;51.444;7.460;2023-12-20T04:47:44;99596.19;;;6.97;91.88
59055;BME280;44845;51.444;7.460;2023-12-20T04:50:09;99605.75;;;7.06;91.41
59055;BME280;44845;51.444;7.460;2023-12-20T04:52:35;99603.16;;;6.98;91.77
59055;BME280;44845;51.444;7.460;2023-12-20T04:55:01;99610.09;;;6.99;91.64
59055;BME280;44845;51.444;7.460;2023-12-20T04:57:26;99608.34;;;6.96;91.89
59055;BME280;44845;51.444;7.460;2023-12-20T04:59:51;99596.13;;;6.81;91.93
59055;BME280;44845;51.444;7.460;2023-12-20T05:02:17;99603.09;;;6.82;91.44
59055;BME280;44845;51.444;7.460;2023-12-20T05:04:42;99597.88;;;6.85;91.22
59055;BME280;44845;51.444;7.460;2023-12-20T05:07:07;99610.06;;;6.88;91.67
59055;BME280;44845;51.444;7.460;2023-12-20T05:09:33;99610.97;;;7.00;91.41
59055;BME280;44845;51.444;7.460;2023-12-20T05:11:58;99608.31;;;6.81;91.77
59055;BME280;44845;51.444;7.460;2023-12-20T05:14:25;99609.19;;;6.87;91.34
59055;BME280;44845;51.444;7.460;2023-12-20T05:16:50;99606.59;;;7.03;91.13
59055;BME280;44845;51.444;7.460;2023-12-20T05:19:15;99610.06;;;6.93;91.31
59055;BME280;44845;51.444;7.460;2023-12-20T05:21:40;99611.78;;;6.87;91.01
59055;BME280;44845;51.444;7.460;2023-12-20T05:24:07;99610.88;;;6.78;90.94
59055;BME280;44845;51.444;7.460;2023-12-20T05:26:32;99609.97;;;6.69;91.19
59055;BME280;44845;51.444;7.460;2023-12-20T05:28:57;99603.91;;;6.76;91.59
59055;BME280;44845;51.444;7.460;2023-12-20T05:31:23;99603.06;;;6.79;91.10
59055;BME280;44845;51.444;7.460;2023-12-20T05:33:48;99604.84;;;6.90;91.30
59055;BME280;44845;51.444;7.460;2023-12-20T05:36:13;99604.00;;;6.95;90.89
59055;BME280;44845;51.444;7.460;2023-12-20T05:38:40;99609.19;;;6.89;90.93
59055;BME280;44845;51.444;7.460;2023-12-20T05:41:05;99607.47;;;6.99;91.00
59055;BME280;44845;51.444;7.460;2023-12-20T05:43:31;99600.50;;;6.96;90.67
59055;BME280;44845;51.444;7.460;2023-12-20T05:45:56;99596.19;;;6.97;91.20
59055;BME280;44845;51.444;7.460;2023-12-20T05:48:21;99587.44;;;6.82;91.35
59055;BME280;44845;51.444;7.460;2023-12-20T05:50:47;99597.03;;;6.93;91.10
59055;BME280;44845;51.444;7.460;2023-12-20T05:53:14;99592.66;;;6.82;91.46
59055;BME280;44845;51.444;7.460;2023-12-20T05:55:39;99592.66;;;6.89;91.10
59055;BME280;44845;51.444;7.460;2023-12-20T05:58:05;99590.94;;;6.89;90.63
59055;BME280;44845;51.444;7.460;2023-12-20T06:00:30;99594.41;;;6.86;91.10
59055;BME280;44845;51.444;7.460;2023-12-20T06:02:56;99596.13;;;6.91;91.02
59055;BME280;44845;51.444;7.460;2023-12-20T06:05:21;99596.19;;;7.00;90.69
59055;BME280;44845;51.444;7.460;2023-12-20T06:07:47;99587.47;;;6.92;90.40
59055;BME280;44845;51.444;7.460;2023-12-20T06:10:13;99593.56;;;6.94;90.78
59055;BME280;44845;51.444;7.460;2023-12-20T06:12:39;99598.78;;;6.92;90.40
59055;BME280;44845;51.444;7.460;2023-12-20T06:15:04;99601.38;;;6.87;90.95
59055;BME280;44845;51.444;7.460;2023-12-20T06:17:31;99590.97;;;6.97;90.21
59055;BME280;44845;51.444;7.460;2023-12-20T06:19:56;99594.41;;;6.90;90.51
59055;BME280;44845;51.444;7.460;2023-12-20T06:22:22;99589.19;;;6.86;90.66
59055;BME280;44845;51.444;7.460;2023-12-20T06:24:47;99603.03;;;6.76;90.92
59055;BME280;44845;51.444;7.460;2023-12-20T06:27:12;99599.59;;;6.83;91.16
59055;BME280;44845;51.444;7.460;2023-12-20T06:29:38;99599.59;;;6.83;90.72
59055;BME280;44845;51.444;7.460;2023-12-20T06:32:04;99584.84;;;6.93;90.48
59055;BME280;44845;51.444;7.460;2023-12-20T06:34:29;99603.97;;;6.91;90.71
59055;BME280;44845;51.444;7.460;2023-12-20T06:36:54;99594.41;;;6.86;90.83
59055;BME280;44845;51.444;7.460;2023-12-20T06:39:20;99587.41;;;6.79;90.81
59055;BME280;44845;51.444;7.460;2023-12-20T06:41:45;99597.03;;;7.01;90.32
59055;BME280;44845;51.444;7.460;2023-12-20T06:44:11;99596.16;;;6.94;90.78
59055;BME280;44845;51.444;7.460;2023-12-20T06:46:36;99608.38;;;7.10;90.14
59055;BME280;44845;51.444;7.460;2023-12-20T06:49:01;99598.78;;;7.02;90.25
59055;BME280;44845;51.444;7.460;2023-12-20T06:51:27;99596.19;;;7.00;89.84
59055;BME280;44845;51.444;7.460;2023-12-20T06:53:53;99597.91;;;6.92;89.96
59055;BME280;44845;51.444;7.460;2023-12-20T06:56:18;99597.00;;;6.82;89.92
59055;BME280;44845;51.444;7.460;2023-12-20T06:58:44;99587.47;;;6.90;90.34
59055;BME280;44845;51.444;7.460;2023-12-20T07:01:15;99600.50;;;6.96;90.71
59055;BME280;44845;51.444;7.460;2023-12-20T07:03:41;99597.03;;;7.01;90.10
59055;BME280;44845;51.444;7.460;2023-12-20T07:06:07;99600.50;;;6.90;89.86
59055;BME280;44845;51.444;7.460;2023-12-20T07:08:32;99599.63;;;6.86;89.98
59055;BME280;44845;51.444;7.460;2023-12-20T07:10:58;99602.19;;;6.75;90.39
59055;BME280;44845;51.444;7.460;2023-12-20T07:13:23;99601.31;;;6.81;90.02
59055;BME280;44845;51.444;7.460;2023-12-20T07:15:49;99595.28;;;6.90;90.18
59055;BME280;44845;51.444;7.460;2023-12-20T07:18:14;99590.97;;;6.97;89.58
59055;BME280;44845;51.444;7.460;2023-12-20T07:20:39;99602.25;;;7.01;89.74
59055;BME280;44845;51.444;7.460;2023-12-20T07:23:05;99592.69;;;6.85;89.47
59055;BME280;44845;51.444;7.460;2023-12-20T07:25:30;99590.97;;;6.97;89.34
59055;BME280;44845;51.444;7.460;2023-12-20T07:27:58;99587.47;;;6.92;89.51
59055;BME280;44845;51.444;7.460;2023-12-20T07:30:23;99595.25;;;6.78;89.12
59055;BME280;44845;51.444;7.460;2023-12-20T07:32:48;99596.16;;;6.87;88.97
59055;BME280;44845;51.444;7.460;2023-12-20T07:35:15;99604.88;;;6.93;89.37
59055;BME280;44845;51.444;7.460;2023-12-20T07:37:41;99601.41;;;6.95;88.61
59055;BME280;44845;51.444;7.460;2023-12-20T07:40:07;99606.63;;;7.00;88.87
59055;BME280;44845;51.444;7.460;2023-12-20T07:42:33;99599.63;;;6.96;88.40
59055;BME280;44845;51.444;7.460;2023-12-20T07:44:58;99600.53;;;7.00;88.88
59055;BME280;44845;51.444;7.460;2023-12-20T07:47:23;99607.41;;;6.83;88.96
59055;BME280;44845;51.444;7.460;2023-12-20T07:49:50;99608.34;;;7.00;88.44
59055;BME280;44845;51.444;7.460;2023-12-20T07:52:19;99605.72;;;6.96;88.43
59055;BME280;44845;51.444;7.460;2023-12-20T07:54:45;99620.50;;;6.96;88.31
59055;BME280;44845;51.444;7.460;2023-12-20T07:57:11;99602.25;;;6.94;88.39
59055;BME280;44845;51.444;7.460;2023-12-20T07:59:37;99604.00;;;7.00;88.55
59055;BME280;44845;51.444;7.460;2023-12-20T08:02:02;99608.34;;;7.01;88.49
59055;BME280;44845;51.444;7.460;2023-12-20T08:04:27;99611.84;;;7.09;88.35
59055;BME280;44845;51.444;7.460;2023-12-20T08:06:53;99610.09;;;6.99;88.35
59055;BME280;44845;51.444;7.460;2023-12-20T08:09:18;99607.50;;;7.07;88.37
59055;BME280;44845;51.444;7.460;2023-12-20T08:11:45;99608.38;;;7.09;88.21
59055;BME280;44845;51.444;7.460;2023-12-20T08:14:11;99603.13;;;7.06;88.49
59055;BME280;44845;51.444;7.460;2023-12-20T08:16:36;99600.53;;;7.06;88.27
59055;BME280;44845;51.444;7.460;2023-12-20T08:19:01;99605.75;;;7.09;88.49
59055;BME280;44845;51.444;7.460;2023-12-20T08:21:27;99604.00;;;7.08;87.80
59055;BME280;44845;51.444;7.460;2023-12-20T08:23:52;99609.25;;;7.09;88.10
59055;BME280;44845;51.444;7.460;2023-12-20T08:26:21;99603.16;;;7.07;88.75
59055;BME280;44845;51.444;7.460;2023-12-20T08:28:48;99609.25;;;7.13;88.11
59055;BME280;44845;51.444;7.460;2023-12-20T08:31:14;99603.97;;;6.94;89.17
59055;BME280;44845;51.444;7.460;2023-12-20T08:33:41;99603.16;;;7.04;88.46
59055;BME280;44845;51.444;7.460;2023-12-20T08:36:06;99610.09;;;7.08;88.83
59055;BME280;44845;51.444;7.460;2023-12-20T08:38:31;99615.31;;;7.02;89.12
59055;BME280;44845;51.444;7.460;2023-12-20T08:40:57;99602.28;;;7.05;88.63
59055;BME280;44845;51.444;7.460;2023-12-20T08:43:22;99599.69;;;7.05;88.50
59055;BME280;44845;51.444;7.460;2023-12-20T08:45:47;99606.59;;;7.03;88.83
59055;BME280;44845;51.444;7.460;2023-12-20T08:48:13;99605.69;;;6.81;89.20
59055;BME280;44845;51.444;7.460;2023-12-20T08:50:38;99604.84;;;6.96;89.16
59055;BME280;44845;51.444;7.460;2023-12-20T08:53:04;99610.97;;;7.09;88.76
59055;BME280;44845;51.444;7.460;2023-12-20T08:55:29;99611.88;;;7.19;88.48
59055;BME280;44845;51.444;7.460;2023-12-20T08:57:56;99602.28;;;7.18;88.78
59055;BME280;44845;51.444;7.460;2023-12-20T09:00:21;99604.06;;;7.13;88.34
59055;BME280;44845;51.444;7.460;2023-12-20T09:02:49;99594.47;;;7.18;88.54
59055;BME280;44845;51.444;7.460;2023-12-20T09:05:14;99601.38;;;7.03;88.56
59055;BME280;44845;51.444;7.460;2023-12-20T09:07:40;99611.88;;;7.19;88.03
59055;BME280;44845;51.444;7.460;2023-12-20T09:10:06;99597.09;;;7.24;87.65
59055;BME280;44845;51.444;7.460;2023-12-20T09:12:31;99604.06;;;7.28;88.14
59055;BME280;44845;51.444;7.460;2023-12-20T09:14:56;99610.09;;;7.08;88.32
59055;BME280;44845;51.444;7.460;2023-12-20T09:17:22;99593.56;;;7.08;88.52
59055;BME280;44845;51.444;7.460;2023-12-20T09:19:48;99602.34;;;7.73;100.00
59055;BME280;44845;51.444;7.460;2023-12-20T09:22:13;99587.28;;;8.89;92.36
59055;BME280;44845;51.444;7.460;2023-12-20T09:24:38;99575.09;;;8.85;83.27
59055;BME280;44845;51.444;7.460;2023-12-20T09:27:05;99580.19;;;9.14;81.54
59055;BME280;44845;51.444;7.460;2023-12-20T09:29:30;99573.78;;;9.55;79.98
59055;BME280;44845;51.444;7.460;2023-12-20T09:31:56;99575.53;;;9.53;78.65
59055;BME280;44845;51.444;7.460;2023-12-20T09:34:23;99579.88;;;9.54;76.59
59055;BME280;44845;51.444;7.460;2023-12-20T09:36:48;99582.75;;;9.20;77.28
59055;BME280;44845;51.444;7.460;2023-12-20T09:39:14;99573.38;;;8.84;78.04
59055;BME280;44845;51.444;7.460;2023-12-20T09:41:43;99592.66;;;8.49;79.98
59055;BME280;44845;51.444;7.460;2023-12-20T09:44:15;99596.22;;;8.16;81.31
59055;BME280;44845;51.444;7.460;2023-12-20T09:46:44;99591.03;;;8.04;82.56
59055;BME280;44845;51.444;7.460;2023-12-20T09:49:10;99591.03;;;7.85;83.03
59055;BME280;44845;51.444;7.460;2023-12-20T09:51:36;99580.59;;;7.63;84.58
59055;BME280;44845;51.444;7.460;2023-12-20T09:54:03;99573.66;;;7.63;85.02
59055;BME280;44845;51.444;7.460;2023-12-20T09:56:29;99592.81;;;7.54;85.14
59055;BME280;44845;51.444;7.460;2023-12-20T09:58:54;99587.56;;;7.48;85.52
59055;BME280;44845;51.444;7.460;2023-12-20T10:01:20;99582.34;;;7.51;86.09
59055;BME280;44845;51.444;7.460;2023-12-20T10:03:46;99573.66;;;7.46;85.51
59055;BME280;44845;51.444;7.460;2023-12-20T10:06:12;99578.88;;;7.49;86.02
59055;BME280;44845;51.444;7.460;2023-12-20T10:08:37;99575.38;;;7.53;85.58
59055;BME280;44845;51.444;7.460;2023-12-20T10:11:03;99576.25;;;7.51;85.95
59055;BME280;44845;51.444;7.460;2023-12-20T10:13:29;99565.81;;;7.46;86.08
59055;BME280;44845;51.444;7.460;2023-12-20T10:15:55;99571.06;;;7.45;85.90
59055;BME280;44845;51.444;7.460;2023-12-20T10:18:21;99567.56;;;7.49;85.96
59055;BME280;44845;51.444;7.460;2023-12-20T10:20:47;99564.94;;;7.53;85.65
59055;BME280;44845;51.444;7.460;2023-12-20T10:23:12;99556.25;;;7.51;86.54
59055;BME280;44845;51.444;7.460;2023-12-20T10:25:39;99558.84;;;7.50;85.92
59055;BME280;44845;51.444;7.460;2023-12-20T10:28:12;99552.75;;;7.38;86.35
59055;BME280;44845;51.444;7.460;2023-12-20T10:30:39;99562.34;;;7.49;86.01
59055;BME280;44845;51.444;7.460;2023-12-20T10:33:06;99543.22;;;7.47;85.80
59055;BME280;44845;51.444;7.460;2023-12-20T10:35:32;99546.69;;;7.46;86.27
59055;BME280;44845;51.444;7.460;2023-12-20T10:38:02;99549.28;;;7.50;86.00
59055;BME280;44845;51.444;7.460;2023-12-20T10:40:29;99535.38;;;7.45;86.10
59055;BME280;44845;51.444;7.460;2023-12-20T10:42:55;99542.34;;;7.46;86.22
59055;BME280;44845;51.444;7.460;2023-12-20T10:45:22;99541.44;;;7.42;86.75
59055;BME280;44845;51.444;7.460;2023-12-20T10:47:49;99542.34;;;7.49;87.09
59055;BME280;44845;51.444;7.460;2023-12-20T10:50:15;99533.63;;;7.50;86.28
59055;BME280;44845;51.444;7.460;2023-12-20T10:52:41;99543.22;;;7.43;86.67
59055;BME280;44845;51.444;7.460;2023-12-20T10:55:07;99535.38;;;7.36;87.32
59055;BME280;44845;51.444;7.460;2023-12-20T10:57:36;99546.69;;;7.35;87.51
59055;BME280;44845;51.444;7.460;2023-12-20T11:00:02;99537.09;;;7.35;88.03
59055;BME280;44845;51.444;7.460;2023-12-20T11:02:39;99547.53;;;7.40;87.13
59055;BME280;44845;51.444;7.460;2023-12-20T11:08:02;99535.38;;;7.37;87.34
59055;BME280;44845;51.444;7.460;2023-12-20T11:10:31;99536.25;;;7.31;87.28
59055;BME280;44845;51.444;7.460;2023-12-20T11:13:08;99549.22;;;8.10;100.00
59055;BME280;44845;51.444;7.460;2023-12-20T11:15:38;99543.88;;;8.44;98.94
59055;BME280;44845;51.444;7.460;2023-12-20T11:18:04;99544.56;;;8.92;89.34
59055;BME280;44845;51.444;7.460;2023-12-20T11:20:37;99540.72;;;9.43;87.95
59055;BME280;44845;51.444;7.460;2023-12-20T11:23:03;99542.34;;;9.57;81.30
59055;BME280;44845;51.444;7.460;2023-12-20T11:25:29;99531.78;;;9.68;80.03
59055;BME280;44845;51.444;7.460;2023-12-20T11:28:11;99532.38;;;9.97;82.71
59055;BME280;44845;51.444;7.460;2023-12-20T11:33:13;99541.78;;;9.19;78.07
59055;BME280;44845;51.444;7.460;2023-12-20T11:35:39;99523.66;;;8.86;79.33
59055;BME280;44845;51.444;7.460;2023-12-20T11:38:07;99522.00;;;8.74;80.37
59055;BME280;44845;51.444;7.460;2023-12-20T11:40:33;99525.59;;;8.48;81.40
59055;BME280;44845;51.444;7.460;2023-12-20T11:42:59;99515.22;;;8.27;82.91
59055;BME280;44845;51.444;7.460;2023-12-20T11:45:25;99512.66;;;8.10;84.02
59055;BME280;44845;51.444;7.460;2023-12-20T11:47:51;99515.34;;;7.83;85.75
59055;BME280;44845;51.444;7.460;2023-12-20T11:50:18;99524.03;;;7.82;86.51
59055;BME280;44845;51.444;7.460;2023-12-20T11:52:44;99517.94;;;7.85;86.51
59055;BME280;44845;51.444;7.460;2023-12-20T11:55:09;99524.06;;;7.71;87.33
59055;BME280;44845;51.444;7.460;2023-12-20T11:57:35;99513.59;;;7.76;87.15
59055;BME280;44845;51.444;7.460;2023-12-20T12:00:05;99512.75;;;7.74;87.09
59055;BME280;44845;51.444;7.460;2023-12-20T12:02:31;99502.25;;;7.82;87.63
59055;BME280;44845;51.444;7.460;2023-12-20T12:04:57;99519.69;;;7.76;87.22
59055;BME280;44845;51.444;7.460;2023-12-20T12:07:24;99515.38;;;7.69;87.70
59055;BME280;44845;51.444;7.460;2023-12-20T12:09:49;99507.53;;;7.57;87.60
59055;BME280;44845;51.444;7.460;2023-12-20T12:12:15;99502.31;;;7.69;87.84
59055;BME280;44845;51.444;7.460;2023-12-20T12:14:40;99507.50;;;7.77;88.29
59055;BME280;44845;51.444;7.460;2023-12-20T12:17:12;99503.19;;;7.68;89.00
59055;BME280;44845;51.444;7.460;2023-12-20T12:19:39;99494.47;;;7.66;88.68
59055;BME280;44845;51.444;7.460;2023-12-20T12:22:14;99484.91;;;7.68;88.95
59055;BME280;44845;51.444;7.460;2023-12-20T12:24:42;99485.78;;;7.61;88.93
59055;BME280;44845;51.444;7.460;2023-12-20T12:27:08;99481.44;;;7.50;89.27
59055;BME280;44845;51.444;7.460;2023-12-20T12:29:34;99486.66;;;7.53;89.63
59055;BME280;44845;51.444;7.460;2023-12-20T12:32:00;99473.63;;;7.44;91.03
59055;BME280;44845;51.444;7.460;2023-12-20T12:34:29;99475.38;;;7.51;90.64
59055;BME280;44845;51.444;7.460;2023-12-20T12:36:55;99473.59;;;7.58;90.71
59055;BME280;44845;51.444;7.460;2023-12-20T12:39:20;99477.97;;;7.47;91.02
59055;BME280;44845;51.444;7.460;2023-12-20T12:41:45;99491.88;;;7.47;90.80
59055;BME280;44845;51.444;7.460;2023-12-20T12:44:11;99497.09;;;7.53;91.02
59055;BME280;44845;51.444;7.460;2023-12-20T12:46:36;99487.53;;;7.59;91.19
59055;BME280;44845;51.444;7.460;2023-12-20T12:49:02;99483.19;;;7.47;91.17
59055;BME280;44845;51.444;7.460;2023-12-20T12:51:27;99471.88;;;7.55;91.53
59055;BME280;44845;51.444;7.460;2023-12-20T12:53:52;99473.63;;;7.57;91.45
59055;BME280;44845;51.444;7.460;2023-12-20T12:56:18;99473.59;;;7.61;91.00
59055;BME280;44845;51.444;7.460;2023-12-20T12:58:43;99458.81;;;7.59;91.47
59055;BME280;44845;51.444;7.460;2023-12-20T13:01:09;99468.41;;;7.57;91.22
59055;BME280;44845;51.444;7.460;2023-12-20T13:03:35;99464.94;;;7.36;92.16
59055;BME280;44845;51.444;7.460;2023-12-20T13:06:00;99459.72;;;7.42;91.79
59055;BME280;44845;51.444;7.460;2023-12-20T13:08:26;99463.19;;;7.57;90.94